createdAt,value
2017-10-24T00:00:45.366Z,91.30
2017-10-24T00:03:14.234Z,91.30
2017-10-24T00:05:42.486Z,91.80
2017-10-24T00:08:10.732Z,91.30
2017-10-24T00:10:38.994Z,91.90
2017-10-24T00:13:07.244Z,92.30
2017-10-24T00:15:35.491Z,92.50
2017-10-24T00:18:03.754Z,91.70
2017-10-24T00:20:32.766Z,92.50
2017-10-24T00:23:01.014Z,92.50
2017-10-24T00:25:29.327Z,92.10
2017-10-24T00:27:57.571Z,92.10
2017-10-24T00:30:25.810Z,92.00
2017-10-24T00:32:54.075Z,91.60
2017-10-24T00:35:22.327Z,92.00
2017-10-24T00:37:50.562Z,91.80
2017-10-24T00:40:18.825Z,91.40
2017-10-24T00:42:47.072Z,91.30
2017-10-24T00:45:15.314Z,91.50
2017-10-24T00:47:45.362Z,91.30
2017-10-24T00:50:13.606Z,91.30
2017-10-24T00:52:41.846Z,91.20
2017-10-24T00:55:10.126Z,91.20
2017-10-24T00:57:38.366Z,91.30
2017-10-24T01:00:06.610Z,91.20
2017-10-24T01:02:35.650Z,91.30
2017-10-24T01:05:03.890Z,91.30
2017-10-24T01:07:32.133Z,91.30
2017-10-24T01:10:00.629Z,91.20
2017-10-24T01:12:28.874Z,91.40
2017-10-24T01:14:57.122Z,91.20
2017-10-24T01:17:25.387Z,91.10
2017-10-24T01:19:53.634Z,91.30
2017-10-24T01:22:22.651Z,91.20
2017-10-24T01:24:50.914Z,91.10
2017-10-24T01:27:19.926Z,91.70
2017-10-24T01:29:48.180Z,91.60
2017-10-24T01:32:16.835Z,91.50
2017-10-24T01:34:45.082Z,91.50
2017-10-24T01:37:13.331Z,91.60
2017-10-24T01:39:41.608Z,91.40
2017-10-24T01:42:09.854Z,91.50
2017-10-24T01:44:38.101Z,91.50
2017-10-24T01:47:06.366Z,91.40
2017-10-24T01:49:35.422Z,91.50
2017-10-24T01:52:04.438Z,91.40
2017-10-24T01:54:33.814Z,91.40
2017-10-24T01:57:02.826Z,92.50
2017-10-24T01:59:31.076Z,92.50
2017-10-24T02:01:59.351Z,91.50
2017-10-24T02:04:27.599Z,93.40
2017-10-24T02:06:55.854Z,92.80
2017-10-24T02:09:24.124Z,92.60
2017-10-24T02:11:52.365Z,92.50
2017-10-24T02:14:21.381Z,93.20
2017-10-24T02:16:49.737Z,93.20
2017-10-24T02:19:18.751Z,93.30
2017-10-24T02:21:46.993Z,93.30
2017-10-24T02:24:15.490Z,93.60
2017-10-24T02:26:44.515Z,92.90
2017-10-24T02:29:12.761Z,92.90
2017-10-24T02:31:41.797Z,94.10
2017-10-24T02:34:10.058Z,94.10
2017-10-24T02:36:38.379Z,93.10
2017-10-24T02:39:07.042Z,92.80
2017-10-24T02:41:35.299Z,92.70
2017-10-24T02:44:03.554Z,92.50
2017-10-24T02:46:31.838Z,92.40
2017-10-24T02:49:00.087Z,92.30
2017-10-24T02:51:28.758Z,92.70
2017-10-24T02:53:57.522Z,92.40
2017-10-24T02:56:25.778Z,92.30
2017-10-24T02:58:54.023Z,92.30
2017-10-24T03:01:23.306Z,92.40
2017-10-24T03:03:51.545Z,92.40
2017-10-24T03:06:19.886Z,92.40
2017-10-24T03:08:48.164Z,92.40
2017-10-24T03:11:17.171Z,93.40
2017-10-24T03:13:45.431Z,93.30
2017-10-24T03:16:13.702Z,93.00
2017-10-24T03:18:42.721Z,92.90
2017-10-24T03:21:10.963Z,92.90
2017-10-24T03:23:39.301Z,92.80
2017-10-24T03:26:07.559Z,92.90
2017-10-24T03:28:35.817Z,92.90
2017-10-24T03:31:05.107Z,93.00
2017-10-24T03:33:34.125Z,93.10
2017-10-24T03:36:02.383Z,93.10
2017-10-24T03:38:31.419Z,92.80
2017-10-24T03:40:59.670Z,92.80
2017-10-24T03:43:27.922Z,93.00
2017-10-24T03:45:57.277Z,93.30
2017-10-24T03:48:25.534Z,93.30
2017-10-24T03:50:53.783Z,94.00
2017-10-24T03:53:23.122Z,93.50
2017-10-24T03:55:51.378Z,93.50
2017-10-24T03:58:19.636Z,93.30
2017-10-24T04:00:47.943Z,93.30
2017-10-24T04:03:16.210Z,93.40
2017-10-24T04:05:44.733Z,93.20
2017-10-24T04:08:13.098Z,93.30
2017-10-24T04:10:41.354Z,93.10
2017-10-24T04:13:09.606Z,93.10
2017-10-24T04:15:40.844Z,93.20
2017-10-24T04:18:09.863Z,93.10
2017-10-24T04:20:38.111Z,93.00
2017-10-24T04:23:06.390Z,93.00
2017-10-24T04:25:34.647Z,92.90
2017-10-24T04:28:02.919Z,92.90
2017-10-24T04:30:31.307Z,92.90
2017-10-24T04:32:59.562Z,93.80
2017-10-24T04:35:27.808Z,93.70
2017-10-24T04:37:56.081Z,93.50
2017-10-24T04:40:24.477Z,93.40
2017-10-24T04:42:52.705Z,94.10
2017-10-24T04:45:21.750Z,93.50
2017-10-24T04:47:50.011Z,93.40
2017-10-24T04:50:18.266Z,93.40
2017-10-24T04:52:46.893Z,93.30
2017-10-24T04:55:15.539Z,94.10
2017-10-24T04:57:44.590Z,93.60
2017-10-24T05:00:12.846Z,93.60
2017-10-24T05:02:41.095Z,94.40
2017-10-24T05:05:09.519Z,94.00
2017-10-24T05:07:37.781Z,93.60
2017-10-24T05:10:06.038Z,93.80
2017-10-24T05:12:34.294Z,93.70
2017-10-24T05:15:03.971Z,93.70
2017-10-24T05:17:32.223Z,93.70
2017-10-24T05:20:00.511Z,93.60
2017-10-24T05:22:28.774Z,93.60
2017-10-24T05:24:57.029Z,93.90
2017-10-24T05:27:25.282Z,93.70
2017-10-24T05:29:54.329Z,93.70
2017-10-24T05:32:22.818Z,93.70
2017-10-24T05:34:51.071Z,94.50
2017-10-24T05:37:19.894Z,94.20
2017-10-24T05:39:48.130Z,94.60
2017-10-24T05:42:16.382Z,94.40
2017-10-24T05:44:44.671Z,94.20
2017-10-24T05:47:12.931Z,94.40
2017-10-24T05:49:41.413Z,94.40
2017-10-24T05:52:09.696Z,94.70
2017-10-24T05:54:37.953Z,94.00
2017-10-24T05:57:07.474Z,94.50
2017-10-24T05:59:36.687Z,94.30
2017-10-24T06:02:05.834Z,94.30
2017-10-24T06:04:34.087Z,94.60
2017-10-24T06:07:02.363Z,95.00
2017-10-24T06:09:30.619Z,94.60
2017-10-24T06:11:58.871Z,94.60
2017-10-24T06:14:27.909Z,95.20
2017-10-24T06:16:56.166Z,95.20
2017-10-24T06:19:24.427Z,94.40
2017-10-24T06:21:53.146Z,94.50
2017-10-24T06:24:21.419Z,94.40
2017-10-24T06:26:49.665Z,94.10
2017-10-24T06:29:18.702Z,94.50
2017-10-24T06:31:46.955Z,94.50
2017-10-24T06:34:15.206Z,94.90
2017-10-24T06:36:44.247Z,95.40
2017-10-24T06:39:12.499Z,95.00
2017-10-24T06:41:40.750Z,95.30
2017-10-24T06:44:09.870Z,94.20
2017-10-24T06:46:38.121Z,94.20
2017-10-24T06:49:07.131Z,94.50
2017-10-24T06:51:36.415Z,94.50
2017-10-24T06:54:06.606Z,94.40
2017-10-24T06:56:34.851Z,94.40
2017-10-24T06:59:03.703Z,93.80
2017-10-24T07:01:32.720Z,94.20
2017-10-24T07:04:00.986Z,94.10
2017-10-24T07:06:29.662Z,94.20
2017-10-24T07:08:58.308Z,93.80
2017-10-24T07:11:26.542Z,94.50
2017-10-24T07:13:54.806Z,94.90
2017-10-24T07:16:23.878Z,96.10
2017-10-24T07:18:52.111Z,96.10
2017-10-24T07:21:20.515Z,96.30
2017-10-24T07:23:48.740Z,95.90
2017-10-24T07:26:17.746Z,95.70
2017-10-24T07:28:46.199Z,95.70
2017-10-24T07:31:14.449Z,95.50
2017-10-24T07:33:42.693Z,95.50
2017-10-24T07:36:10.962Z,95.70
2017-10-24T07:38:39.206Z,95.50
2017-10-24T07:41:07.454Z,95.40
2017-10-24T07:43:35.734Z,94.90
2017-10-24T07:46:03.974Z,94.70
2017-10-24T07:48:32.215Z,94.70
2017-10-24T07:51:01.559Z,93.90
2017-10-24T07:53:29.790Z,93.90
2017-10-24T07:55:58.035Z,93.80
2017-10-24T07:58:26.310Z,93.90
2017-10-24T08:00:54.723Z,94.60
2017-10-24T08:03:23.738Z,94.10
2017-10-24T08:05:52.043Z,94.00
2017-10-24T08:08:20.300Z,93.90
2017-10-24T08:10:48.548Z,93.80
2017-10-24T08:13:17.896Z,93.60
2017-10-24T08:15:46.138Z,93.50
2017-10-24T08:18:14.394Z,93.70
2017-10-24T08:20:42.675Z,93.90
2017-10-24T08:23:11.687Z,93.80
2017-10-24T08:25:39.927Z,93.80
2017-10-24T08:28:08.419Z,93.90
2017-10-24T08:30:37.434Z,92.90
2017-10-24T08:33:06.438Z,93.00
2017-10-24T08:35:34.883Z,92.90
2017-10-24T08:38:03.470Z,93.10
2017-10-24T08:40:31.695Z,93.10
2017-10-24T08:42:59.959Z,92.70
2017-10-24T08:45:28.206Z,92.70
2017-10-24T08:47:56.452Z,92.20
2017-10-24T08:50:24.721Z,92.20
2017-10-24T08:52:52.963Z,91.40
2017-10-24T08:55:21.211Z,91.50
2017-10-24T08:57:50.522Z,91.50
2017-10-24T09:00:19.527Z,90.70
2017-10-24T09:02:48.198Z,90.70
2017-10-24T09:05:16.476Z,91.10
2017-10-24T09:07:45.492Z,89.90
2017-10-24T09:10:23.299Z,89.90
2017-10-24T09:12:51.546Z,88.90
2017-10-24T09:15:35.690Z,88.40
2017-10-24T09:18:04.699Z,88.80
2017-10-24T09:20:32.942Z,88.80
2017-10-24T09:23:01.212Z,87.30
2017-10-24T09:25:29.583Z,89.00
2017-10-24T09:27:57.806Z,89.50
2017-10-24T09:30:26.069Z,89.80
2017-10-24T09:32:55.136Z,90.10
2017-10-24T09:35:23.409Z,90.20
2017-10-24T09:37:51.746Z,89.90
2017-10-24T09:40:20.004Z,89.90
2017-10-24T09:42:49.018Z,87.00
2017-10-24T09:45:17.294Z,87.00
2017-10-24T09:47:45.542Z,85.90
2017-10-24T09:50:13.790Z,88.20
2017-10-24T09:52:42.069Z,87.30
2017-10-24T09:55:11.066Z,84.70
2017-10-24T09:57:39.317Z,85.50
2017-10-24T10:00:09.061Z,84.80
2017-10-24T10:02:37.310Z,85.00
2017-10-24T10:05:05.550Z,86.00
2017-10-24T10:07:33.821Z,85.70
2017-10-24T10:10:02.071Z,85.90
2017-10-24T10:12:31.094Z,85.90
2017-10-24T10:14:59.359Z,86.00
2017-10-24T10:17:27.610Z,85.10
2017-10-24T10:19:55.849Z,85.30
2017-10-24T10:22:24.254Z,86.20
2017-10-24T10:24:52.626Z,85.10
2017-10-24T10:27:20.861Z,84.50
2017-10-24T10:29:49.182Z,84.30
2017-10-24T10:32:19.610Z,83.70
2017-10-24T10:34:47.852Z,83.50
2017-10-24T10:37:16.119Z,85.30
2017-10-24T10:39:44.362Z,84.00
2017-10-24T10:42:12.606Z,84.50
2017-10-24T10:44:40.974Z,84.40
2017-10-24T10:47:09.229Z,85.50
2017-10-24T10:49:37.472Z,86.00
2017-10-24T10:52:06.500Z,86.80
2017-10-24T10:54:34.747Z,86.70
2017-10-24T10:57:02.995Z,86.30
2017-10-24T10:59:31.259Z,84.30
2017-10-24T11:01:59.501Z,84.50
2017-10-24T11:04:27.746Z,83.90
2017-10-24T11:06:56.854Z,84.00
2017-10-24T11:09:25.294Z,83.90
2017-10-24T11:11:53.537Z,84.20
2017-10-24T11:14:21.811Z,82.80
2017-10-24T11:16:50.057Z,81.80
2017-10-24T11:19:18.396Z,81.80
2017-10-24T11:21:46.642Z,82.20
2017-10-24T11:24:14.886Z,80.70
2017-10-24T11:26:43.903Z,79.70
2017-10-24T11:29:12.233Z,79.60
2017-10-24T11:31:40.486Z,79.10
2017-10-24T11:36:44.264Z,81.10
2017-10-24T11:39:12.519Z,81.00
2017-10-24T11:41:40.770Z,81.30
2017-10-24T11:44:09.062Z,77.60
2017-10-24T11:46:37.307Z,77.10
2017-10-24T11:49:05.559Z,79.60
2017-10-24T11:51:34.292Z,79.20
2017-10-24T11:54:02.540Z,78.00
2017-10-24T11:56:30.782Z,74.20
2017-10-24T11:58:59.819Z,74.70
2017-10-24T12:01:28.077Z,74.60
2017-10-24T12:03:56.333Z,74.60
2017-10-24T12:06:24.806Z,75.20
2017-10-24T12:08:54.110Z,77.00
2017-10-24T12:11:22.355Z,77.80
2017-10-24T12:13:50.910Z,76.70
2017-10-24T12:16:19.151Z,75.60
2017-10-24T12:18:47.394Z,75.50
2017-10-24T12:21:15.667Z,69.10
2017-10-24T12:23:43.902Z,65.50
2017-10-24T12:26:12.143Z,66.10
2017-10-24T12:28:41.190Z,67.50
2017-10-24T12:31:09.428Z,67.30
2017-10-24T12:33:37.670Z,70.70
2017-10-24T12:36:06.323Z,66.20
2017-10-24T12:38:34.562Z,67.30
2017-10-24T12:41:02.808Z,68.20
2017-10-24T12:43:31.071Z,70.90
2017-10-24T12:46:01.119Z,70.40
2017-10-24T12:48:29.370Z,71.60
2017-10-24T12:51:11.703Z,72.00
2017-10-24T12:53:39.953Z,73.30
2017-10-24T12:56:08.327Z,73.50
2017-10-24T12:58:42.198Z,75.40
2017-10-24T13:01:10.442Z,76.70
2017-10-24T13:03:38.685Z,77.70
2017-10-24T13:06:06.946Z,78.30
2017-10-24T13:08:35.194Z,78.70
2017-10-24T13:11:03.866Z,78.90
2017-10-24T13:13:33.170Z,80.90
2017-10-24T13:16:02.186Z,79.90
2017-10-24T13:18:31.425Z,79.90
2017-10-24T13:21:00.138Z,81.20
2017-10-24T13:23:29.158Z,80.90
2017-10-24T13:25:57.401Z,80.90
2017-10-24T13:28:28.358Z,80.70
2017-10-24T13:30:57.374Z,81.00
2017-10-24T13:33:25.687Z,80.90
2017-10-24T13:35:54.010Z,82.20
2017-10-24T13:38:22.254Z,82.50
2017-10-24T13:40:50.498Z,82.80
2017-10-24T13:43:18.770Z,84.20
2017-10-24T13:45:47.012Z,83.90
2017-10-24T13:48:16.039Z,84.60
2017-10-24T13:50:44.375Z,84.50
2017-10-24T13:53:13.383Z,83.70
2017-10-24T13:55:42.394Z,84.70
2017-10-24T13:58:10.726Z,84.60
2017-10-24T14:00:38.964Z,85.90
2017-10-24T14:03:07.208Z,86.80
2017-10-24T14:05:41.850Z,86.20
2017-10-24T14:08:15.814Z,86.20
2017-10-24T14:10:44.086Z,86.60
2017-10-24T14:13:12.341Z,85.90
2017-10-24T14:15:40.594Z,85.40
2017-10-24T14:18:09.216Z,85.70
2017-10-24T14:20:38.073Z,85.50
2017-10-24T14:23:06.324Z,84.60
2017-10-24T14:25:34.599Z,84.30
2017-10-24T14:28:03.617Z,84.30
2017-10-24T14:30:31.862Z,84.20
2017-10-24T14:33:01.311Z,84.20
2017-10-24T14:35:29.579Z,84.20
2017-10-24T14:37:57.886Z,83.10
2017-10-24T14:40:26.222Z,83.20
2017-10-24T14:42:54.471Z,82.90
2017-10-24T14:45:23.487Z,84.40
2017-10-24T14:47:51.750Z,84.30
2017-10-24T14:50:20.758Z,85.20
2017-10-24T14:52:49.001Z,85.20
2017-10-24T14:55:17.267Z,85.50
2017-10-24T14:57:45.512Z,85.70
2017-10-24T15:00:13.753Z,84.40
2017-10-24T15:02:43.091Z,84.80
2017-10-24T15:05:11.382Z,84.70
2017-10-24T15:07:39.627Z,85.70
2017-10-24T15:10:07.886Z,86.20
2017-10-24T15:12:36.918Z,87.20
2017-10-24T15:15:05.171Z,87.20
2017-10-24T15:17:33.438Z,86.30
2017-10-24T15:20:01.674Z,87.40
2017-10-24T15:22:29.918Z,87.00
2017-10-24T15:24:58.505Z,87.00
2017-10-24T15:27:26.746Z,86.90
2017-10-24T15:29:54.985Z,87.30
2017-10-24T15:32:23.258Z,88.30
2017-10-24T15:34:52.563Z,87.60
2017-10-24T15:37:20.939Z,88.30
2017-10-24T15:39:49.344Z,88.50
2017-10-24T15:42:17.562Z,89.90
2017-10-24T15:44:47.002Z,89.80
2017-10-24T15:47:15.335Z,89.80
2017-10-24T15:49:43.582Z,90.30
2017-10-24T15:52:11.918Z,90.10
2017-10-24T15:54:40.273Z,90.50
2017-10-24T15:57:08.514Z,89.20
2017-10-24T15:59:37.534Z,89.90
2017-10-24T16:02:05.974Z,90.30
2017-10-24T16:04:34.228Z,90.60
2017-10-24T16:07:02.467Z,90.80
2017-10-24T16:09:30.981Z,90.50
2017-10-24T16:11:59.211Z,90.30
2017-10-24T16:14:27.890Z,90.50
2017-10-24T16:16:56.918Z,90.40
2017-10-24T16:19:25.209Z,90.40
2017-10-24T16:21:54.526Z,90.40
2017-10-24T16:24:22.803Z,90.10
2017-10-24T16:26:51.053Z,89.80
2017-10-24T16:29:19.315Z,90.50
2017-10-24T16:31:47.802Z,90.30
2017-10-24T16:34:16.133Z,89.80
2017-10-24T16:36:44.505Z,89.80
2017-10-24T16:39:12.780Z,90.40
2017-10-24T16:41:41.086Z,90.70
2017-10-24T16:44:10.100Z,91.00
2017-10-24T16:46:38.362Z,91.00
2017-10-24T16:49:07.495Z,91.00
2017-10-24T16:51:35.728Z,90.90
2017-10-24T16:54:04.833Z,90.80
2017-10-24T16:56:33.083Z,90.80
2017-10-24T16:59:01.383Z,90.60
2017-10-24T17:01:30.420Z,90.80
2017-10-24T17:03:58.658Z,90.80
2017-10-24T17:06:26.917Z,90.80
2017-10-24T17:08:55.951Z,91.00
2017-10-24T17:11:24.191Z,90.90
2017-10-24T17:13:53.212Z,90.60
2017-10-24T17:16:22.067Z,90.50
2017-10-24T17:18:50.310Z,90.40
2017-10-24T17:21:18.691Z,90.50
2017-10-24T17:23:47.274Z,90.90
2017-10-24T17:26:16.698Z,90.90
2017-10-24T17:28:45.064Z,91.00
2017-10-24T17:31:13.459Z,90.60
2017-10-24T17:33:42.007Z,91.10
2017-10-24T17:36:10.235Z,91.20
2017-10-24T17:38:39.318Z,90.90
2017-10-24T17:41:07.883Z,90.90
2017-10-24T17:43:36.266Z,90.50
2017-10-24T17:46:04.667Z,90.90
2017-10-24T17:48:33.688Z,91.00
2017-10-24T17:51:02.082Z,91.00
2017-10-24T17:53:30.790Z,91.20
2017-10-24T17:56:01.237Z,91.30
2017-10-24T17:58:30.527Z,91.20
2017-10-24T18:00:58.990Z,91.70
2017-10-24T18:03:27.287Z,91.70
2017-10-24T18:05:58.740Z,91.60
2017-10-24T18:08:27.142Z,91.90
2017-10-24T18:10:56.178Z,91.90
2017-10-24T18:13:24.482Z,91.50
2017-10-24T18:15:53.069Z,91.20
2017-10-24T18:18:21.297Z,91.30
2017-10-24T18:20:51.482Z,91.30
2017-10-24T18:23:19.943Z,91.00
2017-10-24T18:25:49.151Z,91.20
2017-10-24T18:28:17.415Z,91.30
2017-10-24T18:30:45.703Z,91.20
2017-10-24T18:33:14.906Z,91.30
2017-10-24T18:35:43.348Z,91.40
2017-10-24T18:38:11.677Z,92.00
2017-10-24T18:40:40.039Z,91.70
2017-10-24T18:43:08.428Z,91.70
2017-10-24T18:45:36.876Z,91.70
2017-10-24T18:48:05.182Z,91.80
2017-10-24T18:50:33.443Z,92.10
2017-10-24T18:53:01.702Z,92.20
2017-10-24T18:55:31.228Z,92.40
2017-10-24T18:58:02.840Z,92.20
2017-10-24T19:00:31.094Z,92.20
2017-10-24T19:03:00.102Z,92.40
2017-10-24T19:05:29.219Z,92.30
2017-10-24T19:07:58.671Z,92.30
2017-10-24T19:10:27.057Z,92.60
2017-10-24T19:12:55.455Z,92.80
2017-10-24T19:15:24.483Z,92.80
2017-10-24T19:17:52.794Z,92.80
2017-10-24T19:20:21.187Z,93.20
2017-10-24T19:22:49.555Z,93.20
2017-10-24T19:25:17.936Z,92.90
2017-10-24T19:27:46.678Z,93.00
2017-10-24T19:30:15.004Z,92.90
2017-10-24T19:32:43.381Z,93.40
2017-10-24T19:35:11.678Z,93.00
2017-10-24T19:37:39.918Z,93.00
2017-10-24T19:40:09.546Z,93.00
2017-10-24T19:42:37.830Z,93.10
2017-10-24T19:45:06.075Z,93.10
2017-10-24T19:47:34.338Z,93.30
2017-10-24T19:50:02.789Z,93.50
2017-10-24T19:52:31.797Z,93.70
2017-10-24T19:55:00.044Z,93.70
2017-10-24T19:57:29.069Z,93.40
2017-10-24T19:59:57.313Z,93.40
2017-10-24T20:02:25.562Z,93.60
2017-10-24T20:04:53.829Z,93.50
2017-10-24T20:07:22.074Z,93.50
2017-10-24T20:09:50.314Z,93.40
2017-10-24T20:12:19.053Z,93.40
2017-10-24T20:14:47.298Z,93.50
2017-10-24T20:17:16.315Z,94.00
2017-10-24T20:19:44.575Z,94.00
2017-10-24T20:22:12.854Z,93.70
2017-10-24T20:24:41.095Z,93.70
2017-10-24T20:27:09.362Z,93.80
2017-10-24T20:29:37.606Z,93.80
2017-10-24T20:32:05.866Z,93.80
2017-10-24T20:34:34.466Z,93.70
2017-10-24T20:37:02.722Z,93.90
2017-10-24T20:39:30.966Z,93.60
2017-10-24T20:41:59.235Z,93.30
2017-10-24T20:44:27.483Z,93.50
2017-10-24T20:46:55.732Z,93.60
2017-10-24T20:49:23.999Z,94.20
2017-10-24T20:51:52.238Z,94.10
2017-10-24T20:54:20.494Z,93.70
2017-10-24T20:56:49.267Z,94.50
2017-10-24T20:59:17.507Z,94.20
2017-10-24T21:01:45.751Z,93.90
2017-10-24T21:04:14.020Z,93.70
2017-10-24T21:06:42.254Z,93.90
2017-10-24T21:09:10.503Z,93.80
2017-10-24T21:11:39.539Z,93.90
2017-10-24T21:14:07.783Z,93.90
2017-10-24T21:16:36.026Z,93.90
2017-10-24T21:19:04.386Z,93.90
2017-10-24T21:21:32.628Z,94.20
2017-10-24T21:24:01.087Z,93.70
2017-10-24T21:26:30.122Z,94.30
2017-10-24T21:28:58.374Z,94.30
2017-10-24T21:31:26.608Z,94.10
2017-10-24T21:33:54.880Z,94.30
2017-10-24T21:36:23.127Z,94.30
2017-10-24T21:38:51.370Z,93.90
2017-10-24T21:41:19.954Z,93.80
2017-10-24T21:43:48.190Z,93.90
2017-10-24T21:46:16.439Z,94.00
2017-10-24T21:48:44.703Z,93.80
2017-10-24T21:51:12.944Z,93.80
2017-10-24T21:53:41.947Z,94.10
2017-10-24T21:56:11.030Z,93.90
2017-10-24T21:58:39.262Z,93.90
2017-10-24T22:01:07.506Z,94.30
2017-10-24T22:03:36.422Z,94.00
2017-10-24T22:06:04.664Z,94.30
2017-10-24T22:08:32.906Z,93.20
2017-10-24T22:11:01.181Z,93.20
2017-10-24T22:13:29.430Z,93.80
2017-10-24T22:15:57.670Z,93.40
2017-10-24T22:18:26.698Z,93.70
2017-10-24T22:20:54.950Z,93.70
2017-10-24T22:23:23.198Z,94.40
2017-10-24T22:25:51.847Z,94.20
2017-10-24T22:28:20.090Z,94.40
2017-10-24T22:30:48.330Z,94.40
2017-10-24T22:33:16.647Z,94.70
2017-10-24T22:35:44.898Z,95.10
2017-10-24T22:38:13.919Z,94.90
2017-10-24T22:40:42.186Z,94.90
2017-10-24T22:43:10.434Z,94.90
2017-10-24T22:45:38.672Z,94.70
2017-10-24T22:48:07.130Z,94.70
2017-10-24T22:50:35.582Z,94.70
2017-10-24T22:53:04.602Z,95.00
2017-10-24T22:55:32.879Z,95.00
2017-10-24T22:58:01.122Z,94.10
2017-10-24T23:00:29.366Z,94.90
2017-10-24T23:02:57.630Z,95.40
2017-10-24T23:05:25.887Z,95.30
2017-10-24T23:07:54.139Z,95.60
2017-10-24T23:10:23.429Z,95.00
2017-10-24T23:12:51.683Z,95.00
2017-10-24T23:15:19.934Z,95.10
2017-10-24T23:17:48.211Z,94.80
2017-10-24T23:20:16.466Z,95.40
2017-10-24T23:22:44.714Z,95.60
2017-10-24T23:25:13.751Z,95.10
2017-10-24T23:27:42.489Z,95.10
2017-10-24T23:30:11.511Z,95.60
2017-10-24T23:32:40.035Z,95.60
2017-10-24T23:35:08.283Z,95.50
2017-10-24T23:37:36.594Z,95.40
2017-10-24T23:40:05.191Z,94.90
2017-10-24T23:42:33.444Z,95.30
2017-10-24T23:45:01.695Z,95.10
2017-10-24T23:47:29.966Z,95.40
2017-10-24T23:49:58.215Z,95.20
2017-10-24T23:52:27.226Z,95.30
2017-10-24T23:54:56.443Z,95.00
2017-10-24T23:57:24.687Z,95.00
2017-10-24T23:59:53.706Z,94.80
